createdAt,value
2022-11-29T00:01:30.244Z,100336.78
2022-11-29T00:04:31.700Z,100341.66
2022-11-29T00:07:34.438Z,100343.38
2022-11-29T00:10:37.676Z,100333.72
2022-11-29T00:13:39.853Z,100339.13
2022-11-29T00:16:42.582Z,100334.88
2022-11-29T00:19:45.117Z,100347.56
2022-11-29T00:22:46.678Z,100339.63
2022-11-29T00:25:48.257Z,100343.31
2022-11-29T00:28:49.857Z,100348.94
2022-11-29T00:31:51.300Z,100350.81
2022-11-29T00:34:52.843Z,100350.97
2022-11-29T00:37:54.360Z,100355.53
2022-11-29T00:40:55.823Z,100334.81
2022-11-29T00:43:57.383Z,100349.41
2022-11-29T00:46:58.886Z,100334.16
2022-11-29T00:50:00.379Z,100334.31
2022-11-29T00:53:01.908Z,100339.91
2022-11-29T00:56:04.897Z,100338.22
2022-11-29T00:59:06.389Z,100338.34
2022-11-29T01:02:08.034Z,100346.69
2022-11-29T01:05:09.534Z,100350.38
2022-11-29T01:08:12.006Z,100349.53
2022-11-29T01:11:20.712Z,100351.41
2022-11-29T01:14:22.400Z,100347.16
2022-11-29T01:17:23.892Z,100350.03
2022-11-29T01:20:25.836Z,100350.03
2022-11-29T01:23:28.585Z,100360.88
2022-11-29T01:26:30.959Z,100357.50
2022-11-29T01:29:32.498Z,100362.03
2022-11-29T01:32:33.994Z,100359.50
2022-11-29T01:35:35.475Z,100364.09
2022-11-29T01:38:37.064Z,100363.22
2022-11-29T01:41:38.663Z,100359.66
2022-11-29T01:44:46.639Z,100357.97
2022-11-29T01:47:51.725Z,100357.13
2022-11-29T01:50:55.172Z,100357.13
2022-11-29T01:53:57.364Z,100361.03
2022-11-29T01:56:59.563Z,100365.56
2022-11-29T02:00:08.663Z,100367.28
2022-11-29T02:03:16.501Z,100365.56
2022-11-29T02:06:18.319Z,100371.16
2022-11-29T02:09:22.340Z,100364.00
2022-11-29T02:12:29.799Z,100362.31
2022-11-29T02:15:42.612Z,100365.03
2022-11-29T02:19:22.606Z,100367.88
2022-11-29T02:22:38.893Z,100363.63
2022-11-29T02:25:50.916Z,100363.63
2022-11-29T02:29:31.692Z,100366.53
2022-11-29T02:32:51.750Z,100368.53
2022-11-29T02:36:33.973Z,100367.50
2022-11-29T02:40:23.153Z,100367.69
2022-11-29T02:43:53.087Z,100365.31
2022-11-29T02:47:06.865Z,100373.25
2022-11-29T02:50:28.340Z,100375.28
2022-11-29T02:53:38.424Z,100372.75
2022-11-29T02:56:42.788Z,100371.19
2022-11-29T03:00:05.770Z,100374.63
2022-11-29T03:03:18.587Z,100381.03
2022-11-29T03:06:47.955Z,100382.06
2022-11-29T03:10:01.415Z,100403.88
2022-11-29T03:13:07.596Z,100393.22
2022-11-29T03:16:14.545Z,100396.06
2022-11-29T03:19:40.618Z,100394.91
2022-11-29T03:23:20.220Z,100397.78
2022-11-29T03:26:29.861Z,100396.94
2022-11-29T03:29:48.471Z,100402.34
2022-11-29T03:33:30.863Z,100401.66
2022-11-29T03:36:59.907Z,100412.50
2022-11-29T03:40:08.326Z,100408.09
2022-11-29T03:43:18.011Z,100409.13
2022-11-29T03:46:29.393Z,100412.66
2022-11-29T03:49:39.930Z,100408.25
2022-11-29T03:52:54.655Z,100418.25
2022-11-29T03:56:01.484Z,100422.81
2022-11-29T03:59:25.272Z,100419.25
2022-11-29T04:03:05.570Z,100422.81
2022-11-29T04:06:23.264Z,100426.56
2022-11-29T04:09:46.693Z,100422.66
2022-11-29T04:13:17.784Z,100429.78
2022-11-29T04:16:39.710Z,100435.22
2022-11-29T04:19:46.990Z,100433.34
2022-11-29T04:22:51.505Z,100434.19
2022-11-29T04:26:23.967Z,100436.75
2022-11-29T04:29:46.741Z,100434.75
2022-11-29T04:33:30.936Z,100433.56
2022-11-29T04:36:51.343Z,100436.28
2022-11-29T04:40:22.730Z,100448.69
2022-11-29T04:43:36.248Z,100445.97
2022-11-29T04:46:43.869Z,100448.50
2022-11-29T04:49:48.261Z,100451.22
2022-11-29T04:53:05.119Z,100457.34
2022-11-29T04:56:28.071Z,100462.44
2022-11-29T04:59:38.649Z,100461.44
2022-11-29T05:02:56.741Z,100465.84
2022-11-29T05:06:16.594Z,100470.09
2022-11-29T05:10:09.178Z,100479.97
2022-11-29T05:13:29.063Z,100482.69
2022-11-29T05:16:48.122Z,100480.81
2022-11-29T05:20:02.669Z,100486.38
2022-11-29T05:23:22.802Z,100478.09
2022-11-29T05:26:33.649Z,100489.78
2022-11-29T05:29:59.242Z,100498.06
2022-11-29T05:33:15.428Z,100499.94
2022-11-29T05:36:35.651Z,100510.97
2022-11-29T05:39:57.552Z,100508.25
2022-11-29T05:43:31.089Z,100517.38
2022-11-29T05:46:59.042Z,100511.25
2022-11-29T05:50:10.528Z,100523.97
2022-11-29T05:53:31.191Z,100525.00
2022-11-29T05:56:55.356Z,100529.72
2022-11-29T05:59:59.111Z,100531.72
2022-11-29T06:03:21.407Z,100535.13
2022-11-29T06:06:28.305Z,100539.72
2022-11-29T06:09:39.757Z,100540.56
2022-11-29T06:12:48.060Z,100542.44
2022-11-29T06:16:31.140Z,100553.81
2022-11-29T06:19:32.694Z,100555.53
2022-11-29T06:23:02.050Z,100565.03
2022-11-29T06:26:11.315Z,100564.88
2022-11-29T06:29:43.247Z,100554.88
2022-11-29T06:33:08.434Z,100569.19
2022-11-29T06:36:16.144Z,100565.59
2022-11-29T06:39:17.731Z,100562.88
2022-11-29T06:42:19.270Z,100563.75
2022-11-29T06:45:21.918Z,100572.75
2022-11-29T06:48:27.076Z,100569.00
2022-11-29T06:51:36.987Z,100570.72
2022-11-29T06:55:01.276Z,100578.88
2022-11-29T06:58:40.274Z,100587.00
2022-11-29T07:01:48.051Z,100589.03
2022-11-29T07:05:29.674Z,100592.44
2022-11-29T07:08:31.416Z,100588.28
2022-11-29T07:11:33.173Z,100589.13
2022-11-29T07:14:35.631Z,100590.00
2022-11-29T07:17:44.554Z,100594.56
2022-11-29T07:21:11.872Z,100598.16
2022-11-29T07:24:13.222Z,100600.16
2022-11-29T07:27:30.312Z,100597.44
2022-11-29T07:30:36.818Z,100591.47
2022-11-29T07:33:44.137Z,100600.63
2022-11-29T07:36:54.153Z,100604.34
2022-11-29T07:40:10.914Z,100612.47
2022-11-29T07:43:53.467Z,100620.63
2022-11-29T07:46:54.983Z,100619.06
2022-11-29T07:49:56.479Z,100625.47
2022-11-29T07:52:59.172Z,100629.22
2022-11-29T07:56:00.649Z,100627.47
2022-11-29T07:59:02.616Z,100625.78
2022-11-29T08:02:11.288Z,100636.63
2022-11-29T08:05:13.459Z,100643.94
2022-11-29T08:08:15.332Z,100646.78
2022-11-29T08:11:16.794Z,100651.34
2022-11-29T08:14:18.344Z,100650.50
2022-11-29T08:17:19.859Z,100658.66
2022-11-29T08:20:21.458Z,100657.94
2022-11-29T08:23:22.940Z,100654.22
2022-11-29T08:26:28.284Z,100652.53
2022-11-29T08:29:32.834Z,100659.50
2022-11-29T08:32:34.862Z,100662.22
2022-11-29T08:35:36.403Z,100667.50
2022-11-29T08:38:38.044Z,100658.34
2022-11-29T08:41:39.547Z,100658.19
2022-11-29T08:44:41.099Z,100668.88
2022-11-29T08:47:42.933Z,100670.59
2022-11-29T08:50:44.888Z,100668.41
2022-11-29T08:53:51.487Z,100683.53
2022-11-29T08:57:37.294Z,100675.94
2022-11-29T09:00:15.378Z,100674.53
2022-11-29T09:03:35.372Z,100681.50
2022-11-29T09:06:39.380Z,100681.00
2022-11-29T09:09:40.940Z,100684.59
2022-11-29T09:12:44.151Z,100688.69
2022-11-29T09:15:45.707Z,100689.25
2022-11-29T09:18:51.933Z,100694.38
2022-11-29T09:21:53.741Z,100695.91
2022-11-29T09:24:55.250Z,100695.91
2022-11-29T09:27:58.828Z,100705.63
2022-11-29T09:31:06.292Z,100702.72
2022-11-29T09:34:07.959Z,100706.47
2022-11-29T09:37:09.460Z,100701.03
2022-11-29T09:40:18.219Z,100702.59
2022-11-29T09:43:40.648Z,100708.00
2022-11-29T09:47:04.034Z,100717.84
2022-11-29T09:50:11.765Z,100723.59
2022-11-29T09:53:47.583Z,100725.31
2022-11-29T09:56:53.063Z,100728.03
2022-11-29T09:59:59.203Z,100727.00
2022-11-29T10:03:08.356Z,100725.16
2022-11-29T10:06:27.556Z,100728.69
2022-11-29T10:09:38.260Z,100728.69
2022-11-29T10:12:44.322Z,100724.28
2022-11-29T10:15:48.650Z,100722.44
2022-11-29T10:18:54.028Z,100720.94
2022-11-29T10:22:33.689Z,100719.09
2022-11-29T10:25:46.463Z,100716.81
2022-11-29T10:28:49.255Z,100720.13
2022-11-29T10:31:54.865Z,100725.06
2022-11-29T10:34:58.560Z,100722.94
2022-11-29T10:41:23.696Z,100727.44
2022-11-29T10:44:25.463Z,100725.28
2022-11-29T10:47:27.035Z,100726.97
2022-11-29T10:50:31.890Z,100726.00
2022-11-29T10:53:37.235Z,100728.41
2022-11-29T10:56:40.285Z,100734.97
2022-11-29T10:59:42.048Z,100730.25
2022-11-29T11:02:43.592Z,100730.25
2022-11-29T11:06:01.695Z,100723.81
2022-11-29T11:09:35.506Z,100721.97
2022-11-29T11:12:36.995Z,100725.69
2022-11-29T11:15:38.491Z,100730.25
2022-11-29T11:18:40.026Z,100718.53
2022-11-29T11:21:41.604Z,100719.56
2022-11-29T11:24:44.393Z,100718.53
2022-11-29T11:27:47.142Z,100722.13
2022-11-29T11:31:01.663Z,100728.22
2022-11-29T11:34:36.738Z,100719.09
2022-11-29T11:37:38.303Z,100721.13
2022-11-29T11:40:39.833Z,100728.94
2022-11-29T11:43:41.578Z,100723.38
2022-11-29T11:46:49.193Z,100723.19
2022-11-29T11:50:04.405Z,100730.34
2022-11-29T11:53:18.374Z,100727.47
2022-11-29T11:56:20.422Z,100731.94
2022-11-29T11:59:24.845Z,100722.78
2022-11-29T12:02:40.966Z,100727.38
2022-11-29T12:05:46.235Z,100730.19
2022-11-29T12:08:49.290Z,100728.34
2022-11-29T12:12:01.354Z,100741.91
2022-11-29T12:15:20.461Z,100736.50
2022-11-29T12:18:34.008Z,100745.63
2022-11-29T12:21:41.914Z,100745.78
2022-11-29T12:24:52.971Z,100748.50
2022-11-29T12:27:54.505Z,100745.22
2022-11-29T12:31:23.928Z,100754.19
2022-11-29T12:34:53.106Z,100756.22
2022-11-29T12:38:09.206Z,100767.94
2022-11-29T12:41:54.168Z,100770.78
2022-11-29T12:45:23.495Z,100772.66
2022-11-29T12:48:49.690Z,100769.94
2022-11-29T12:52:21.740Z,100774.50
2022-11-29T12:55:46.762Z,100778.22
2022-11-29T12:59:06.788Z,100778.22
2022-11-29T13:02:24.396Z,100779.94
2022-11-29T13:06:07.795Z,100781.81
2022-11-29T13:09:21.349Z,100779.09
2022-11-29T13:12:36.852Z,100781.94
2022-11-29T13:15:44.580Z,100793.50
2022-11-29T13:18:53.386Z,100788.78
2022-11-29T13:22:25.394Z,100787.75
2022-11-29T13:25:38.353Z,100791.63
2022-11-29T13:28:41.976Z,100800.47
2022-11-29T13:31:45.546Z,100801.31
2022-11-29T13:34:50.666Z,100799.47
2022-11-29T13:38:03.253Z,100813.59
2022-11-29T13:41:27.342Z,100808.31
2022-11-29T13:44:46.280Z,100809.16
2022-11-29T13:47:58.146Z,100810.88
2022-11-29T13:51:28.212Z,100818.00
2022-11-29T13:54:32.672Z,100820.72
2022-11-29T13:58:15.505Z,100818.84
2022-11-29T14:01:16.080Z,100820.00
2022-11-29T14:04:37.502Z,100821.56
2022-11-29T14:08:18.152Z,100823.28
2022-11-29T14:11:56.159Z,100824.28
2022-11-29T14:15:02.639Z,100827.00
2022-11-29T14:18:08.099Z,100824.28
2022-11-29T14:21:10.243Z,100827.84
2022-11-29T14:24:36.805Z,100825.88
2022-11-29T14:27:56.109Z,100825.88
2022-11-29T14:31:01.235Z,100830.44
2022-11-29T14:34:08.836Z,100828.44
2022-11-29T14:37:22.409Z,100838.13
2022-11-29T14:40:50.479Z,100841.41
2022-11-29T14:44:04.796Z,100842.09
2022-11-29T14:47:20.138Z,100845.34
2022-11-29T14:50:38.388Z,100846.91
2022-11-29T14:53:42.288Z,100851.34
2022-11-29T14:56:45.503Z,100850.22
2022-11-29T14:59:54.172Z,100845.31
2022-11-29T15:03:10.556Z,100846.88
2022-11-29T15:06:24.186Z,100846.72
2022-11-29T15:09:26.987Z,100859.28
2022-11-29T15:12:34.378Z,100857.28
2022-11-29T15:15:58.127Z,100858.00
2022-11-29T15:19:08.574Z,100850.69
2022-11-29T15:22:22.806Z,100860.41
2022-11-29T15:25:27.491Z,100864.81
2022-11-29T15:28:30.015Z,100861.09
2022-11-29T15:31:31.726Z,100860.09
2022-11-29T15:34:50.166Z,100880.50
2022-11-29T15:37:53.355Z,100873.22
2022-11-29T15:40:55.824Z,100873.22
2022-11-29T15:44:03.116Z,100875.78
2022-11-29T15:47:36.902Z,100883.63
2022-11-29T15:50:42.786Z,100875.63
2022-11-29T15:54:12.719Z,100876.31
2022-11-29T15:57:34.905Z,100876.19
2022-11-29T16:00:36.716Z,100870.75
2022-11-29T16:03:41.076Z,100874.00
2022-11-29T16:06:44.249Z,100870.44
2022-11-29T16:09:51.208Z,100879.13
2022-11-29T16:12:54.953Z,100883.56
2022-11-29T16:16:08.375Z,100884.25
2022-11-29T16:19:37.925Z,100878.69
2022-11-29T16:22:39.670Z,100890.38
2022-11-29T16:25:59.721Z,100887.38
2022-11-29T16:29:01.867Z,100887.38
2022-11-29T16:32:28.332Z,100893.34
2022-11-29T16:35:33.662Z,100895.91
2022-11-29T16:38:35.296Z,100901.34
2022-11-29T16:41:38.382Z,100897.47
2022-11-29T16:44:39.868Z,100899.19
2022-11-29T16:47:52.846Z,100898.88
2022-11-29T16:51:09.413Z,100910.44
2022-11-29T16:54:27.809Z,100914.00
2022-11-29T16:57:30.136Z,100913.00
2022-11-29T17:00:33.301Z,100915.44
2022-11-29T17:03:34.762Z,100908.97
2022-11-29T17:06:36.877Z,100910.66
2022-11-29T17:09:38.899Z,100912.22
2022-11-29T17:12:44.858Z,100910.22
2022-11-29T17:15:49.378Z,100916.34
2022-11-29T17:18:52.689Z,100917.06
2022-11-29T17:21:54.163Z,100921.47
2022-11-29T17:24:55.615Z,100925.03
2022-11-29T17:27:57.837Z,100931.34
2022-11-29T17:30:59.360Z,100932.19
2022-11-29T17:34:01.311Z,100940.34
2022-11-29T17:37:02.843Z,100942.91
2022-11-29T17:40:04.981Z,100945.47
2022-11-29T17:43:07.079Z,100951.66
2022-11-29T17:46:15.790Z,100956.91
2022-11-29T17:49:18.645Z,100944.19
2022-11-29T17:52:20.183Z,100945.06
2022-11-29T17:55:24.700Z,100955.91
2022-11-29T17:58:29.865Z,100949.63
2022-11-29T18:01:33.886Z,100956.47
2022-11-29T18:04:35.946Z,100957.16
2022-11-29T18:07:57.462Z,100962.81
2022-11-29T18:11:32.976Z,100957.91
2022-11-29T18:14:41.279Z,100955.78
2022-11-29T18:17:42.822Z,100962.59
2022-11-29T18:20:44.329Z,100958.72
2022-11-29T18:23:45.784Z,100962.00
2022-11-29T18:26:47.345Z,100972.69
2022-11-29T18:29:48.960Z,100966.09
2022-11-29T18:32:50.582Z,100970.38
2022-11-29T18:35:52.117Z,100972.78
2022-11-29T18:39:01.243Z,100977.06
2022-11-29T18:42:02.769Z,100965.22
2022-11-29T18:45:04.638Z,100971.38
2022-11-29T18:48:06.134Z,100976.50
2022-11-29T18:51:14.072Z,100976.31
2022-11-29T18:54:17.804Z,100973.47
2022-11-29T18:57:19.256Z,100969.91
2022-11-29T19:00:21.054Z,100973.31
2022-11-29T19:03:22.503Z,100986.75
2022-11-29T19:06:35.427Z,100987.44
2022-11-29T19:09:40.326Z,100985.59
2022-11-29T19:12:41.806Z,100978.13
2022-11-29T19:15:43.377Z,100977.09
2022-11-29T19:18:45.571Z,100980.53
2022-11-29T19:21:47.502Z,100982.25
2022-11-29T19:24:49.042Z,100981.25
2022-11-29T19:27:50.562Z,100984.81
2022-11-29T19:30:55.350Z,100980.94
2022-11-29T19:33:57.831Z,100977.50
2022-11-29T19:36:59.297Z,100985.66
2022-11-29T19:40:00.759Z,100979.22
2022-11-29T19:43:02.237Z,100978.22
2022-11-29T19:46:11.870Z,100978.78
2022-11-29T19:49:13.404Z,100986.94
2022-11-29T19:52:14.902Z,100981.50
2022-11-29T19:55:16.462Z,100983.06
2022-11-29T19:58:18.035Z,100982.16
2022-11-29T20:01:27.830Z,100985.59
2022-11-29T20:04:29.351Z,100984.75
2022-11-29T20:07:31.197Z,100991.88
2022-11-29T20:10:34.177Z,101004.47
2022-11-29T20:13:37.072Z,100993.59
2022-11-29T20:16:39.035Z,100998.88
2022-11-29T20:19:40.601Z,100997.16
2022-11-29T20:22:42.087Z,100998.88
2022-11-29T20:25:48.424Z,101004.31
2022-11-29T20:28:50.200Z,101002.13
2022-11-29T20:31:51.866Z,101002.53
2022-11-29T20:34:53.716Z,101000.38
2022-11-29T20:38:18.950Z,101008.63
2022-11-29T20:41:33.949Z,100999.69
2022-11-29T20:44:57.552Z,101007.59
2022-11-29T20:48:11.929Z,101006.91
2022-11-29T20:51:15.159Z,101004.16
2022-11-29T20:54:19.144Z,101004.91
2022-11-29T20:57:20.849Z,101005.44
2022-11-29T21:00:22.593Z,101012.28
2022-11-29T21:03:26.669Z,101008.50
2022-11-29T21:06:28.200Z,101008.63
2022-11-29T21:09:29.670Z,101007.88
2022-11-29T21:12:31.781Z,101011.53
2022-11-29T21:15:33.807Z,101012.94
2022-11-29T21:18:35.711Z,101007.78
2022-11-29T21:21:57.427Z,101002.91
2022-11-29T21:25:26.599Z,101005.16
2022-11-29T21:28:34.401Z,100997.72
2022-11-29T21:31:36.451Z,101005.69
2022-11-29T21:34:37.976Z,101002.00
2022-11-29T21:37:40.086Z,101004.53
2022-11-29T21:40:41.568Z,101007.13
2022-11-29T21:44:05.343Z,101007.13
2022-11-29T21:47:04.798Z,101009.66
2022-11-29T21:50:07.131Z,101008.72
2022-11-29T21:53:08.584Z,101016.88
2022-11-29T21:56:11.218Z,101022.28
2022-11-29T21:59:12.683Z,101019.56
2022-11-29T22:02:14.365Z,101021.44
2022-11-29T22:05:16.092Z,101021.44
2022-11-29T22:08:18.104Z,101020.53
2022-11-29T22:11:31.328Z,101025.13
2022-11-29T22:14:32.838Z,101029.00
2022-11-29T22:17:34.290Z,101027.28
2022-11-29T22:20:35.743Z,101022.84
2022-11-29T22:23:37.195Z,101032.03
2022-11-29T22:26:39.285Z,101030.31
2022-11-29T22:29:40.789Z,101027.59
2022-11-29T22:32:42.286Z,101036.59
2022-11-29T22:35:44.252Z,101032.16
2022-11-29T22:38:45.777Z,101030.59
2022-11-29T22:41:53.691Z,101039.63
2022-11-29T22:44:55.769Z,101040.63
2022-11-29T22:47:57.913Z,101039.78
2022-11-29T22:51:08.227Z,101037.06
2022-11-29T22:54:11.473Z,101041.78
2022-11-29T22:57:13.007Z,101038.34
2022-11-29T23:00:14.751Z,101037.66
2022-11-29T23:03:16.283Z,101029.50
2022-11-29T23:06:20.368Z,101039.50
2022-11-29T23:09:22.332Z,101036.25
2022-11-29T23:12:25.598Z,101035.53
2022-11-29T23:15:27.110Z,101041.97
2022-11-29T23:18:29.062Z,101043.97
2022-11-29T23:21:33.229Z,101048.56
2022-11-29T23:24:34.722Z,101047.84
2022-11-29T23:27:36.251Z,101045.28
2022-11-29T23:30:37.767Z,101048.16
2022-11-29T23:33:39.402Z,101032.00
2022-11-29T23:36:41.461Z,101033.03
2022-11-29T23:39:42.916Z,101028.75
2022-11-29T23:42:47.200Z,101035.16
2022-11-29T23:45:49.149Z,101034.47
2022-11-29T23:48:50.877Z,101033.75
2022-11-29T23:51:52.335Z,101040.34
2022-11-29T23:54:53.843Z,101047.78
2022-11-29T23:57:55.347Z,101052.34
